createdAt,value
2018-06-16T00:00:40.718Z,994.98
2018-06-16T00:01:40.708Z,994.95
2018-06-16T00:02:40.689Z,994.94
2018-06-16T00:03:40.669Z,994.96
2018-06-16T00:04:40.664Z,994.98
2018-06-16T00:05:40.648Z,994.96
2018-06-16T00:06:40.640Z,994.96
2018-06-16T00:07:40.612Z,994.95
2018-06-16T00:08:40.595Z,994.94
2018-06-16T00:09:40.582Z,994.97
2018-06-16T00:10:40.576Z,994.98
2018-06-16T00:11:40.550Z,994.97
2018-06-16T00:12:40.544Z,994.93
2018-06-16T00:13:40.552Z,995.01
2018-06-16T00:14:40.512Z,994.93
2018-06-16T00:15:40.493Z,994.96
2018-06-16T00:16:40.480Z,994.98
2018-06-16T00:17:40.467Z,994.98
2018-06-16T00:18:40.468Z,994.97
2018-06-16T00:19:40.438Z,994.92
2018-06-16T00:20:40.422Z,994.94
2018-06-16T00:21:40.414Z,994.94
2018-06-16T00:22:40.393Z,994.95
2018-06-16T00:23:40.373Z,994.90
2018-06-16T00:24:40.360Z,994.94
2018-06-16T00:25:40.341Z,994.92
2018-06-16T00:26:40.339Z,994.97
2018-06-16T00:27:40.315Z,994.97
2018-06-16T00:28:40.303Z,994.91
2018-06-16T00:29:40.292Z,994.92
2018-06-16T00:30:40.270Z,994.93
2018-06-16T00:31:40.260Z,994.93
2018-06-16T00:32:40.241Z,994.93
2018-06-16T00:33:40.225Z,994.90
2018-06-16T00:34:40.215Z,994.94
2018-06-16T00:35:40.196Z,994.93
2018-06-16T00:36:40.187Z,994.95
2018-06-16T00:37:40.168Z,994.94
2018-06-16T00:38:40.151Z,994.93
2018-06-16T00:39:40.138Z,994.95
2018-06-16T00:40:40.122Z,994.90
2018-06-16T00:41:40.116Z,994.93
2018-06-16T00:42:40.101Z,994.94
2018-06-16T00:43:40.078Z,994.92
2018-06-16T00:44:40.071Z,994.94
2018-06-16T00:45:40.056Z,994.94
2018-06-16T00:46:40.037Z,994.94
2018-06-16T00:47:40.020Z,994.97
2018-06-16T00:48:40.008Z,994.97
2018-06-16T00:49:39.998Z,994.91
2018-06-16T00:50:39.986Z,994.91
2018-06-16T00:51:39.968Z,994.89
2018-06-16T00:52:39.946Z,994.95
2018-06-16T00:53:39.937Z,994.94
2018-06-16T00:54:39.927Z,994.94
2018-06-16T00:55:39.905Z,994.93
2018-06-16T00:56:39.895Z,994.95
2018-06-16T00:57:39.885Z,994.97
2018-06-16T00:58:39.863Z,994.94
2018-06-16T00:59:39.857Z,994.97
2018-06-16T01:00:39.832Z,994.97
2018-06-16T01:01:39.822Z,994.97
2018-06-16T01:02:39.812Z,995.00
2018-06-16T01:03:39.790Z,994.95
2018-06-16T01:04:39.779Z,994.97
2018-06-16T01:05:39.757Z,994.98
2018-06-16T01:06:39.744Z,994.94
2018-06-16T01:07:39.741Z,994.99
2018-06-16T01:08:39.715Z,994.96
2018-06-16T01:09:39.699Z,994.97
2018-06-16T01:10:39.705Z,994.94
2018-06-16T01:11:39.670Z,994.93
2018-06-16T01:12:39.661Z,994.97
2018-06-16T01:13:39.645Z,994.94
2018-06-16T01:14:39.636Z,994.94
2018-06-16T01:15:39.632Z,994.97
2018-06-16T01:16:39.606Z,994.96
2018-06-16T01:17:39.589Z,994.94
2018-06-16T01:18:39.572Z,994.95
2018-06-16T01:19:39.551Z,994.92
2018-06-16T01:20:39.541Z,994.95
2018-06-16T01:21:39.526Z,994.94
2018-06-16T01:22:39.519Z,994.93
2018-06-16T01:23:39.506Z,994.94
2018-06-16T01:24:39.485Z,994.93
2018-06-16T01:25:39.468Z,994.92
2018-06-16T01:26:39.457Z,994.91
2018-06-16T01:27:39.445Z,994.89
2018-06-16T01:28:39.426Z,994.84
2018-06-16T01:29:39.410Z,994.86
2018-06-16T01:30:39.400Z,994.86
2018-06-16T01:31:39.384Z,994.83
2018-06-16T01:32:39.369Z,994.84
2018-06-16T01:33:39.352Z,994.79
2018-06-16T01:34:39.340Z,994.79
2018-06-16T01:35:39.327Z,994.79
2018-06-16T01:36:39.314Z,994.77
2018-06-16T01:37:39.308Z,994.77
2018-06-16T01:38:39.283Z,994.78
2018-06-16T01:39:39.266Z,994.76
2018-06-16T01:40:39.251Z,994.73
2018-06-16T01:41:39.238Z,994.72
2018-06-16T01:42:39.225Z,994.75
2018-06-16T01:43:39.209Z,994.72
2018-06-16T01:44:39.203Z,994.73
2018-06-16T01:45:39.187Z,994.72
2018-06-16T01:46:39.168Z,994.68
2018-06-16T01:47:39.158Z,994.66
2018-06-16T01:48:39.140Z,994.64
2018-06-16T01:49:39.129Z,994.66
2018-06-16T01:50:39.104Z,994.63
2018-06-16T01:51:39.094Z,994.64
2018-06-16T01:52:39.081Z,994.65
2018-06-16T01:53:39.066Z,994.61
2018-06-16T01:54:39.053Z,994.64
2018-06-16T01:55:39.037Z,994.67
2018-06-16T01:56:39.029Z,994.66
2018-06-16T01:57:39.013Z,994.68
2018-06-16T01:58:38.993Z,994.66
2018-06-16T01:59:38.980Z,994.69
2018-06-16T02:00:38.964Z,994.66
2018-06-16T02:01:38.954Z,994.67
2018-06-16T02:02:38.935Z,994.67
2018-06-16T02:03:38.925Z,994.66
2018-06-16T02:04:38.973Z,994.68
2018-06-16T02:05:38.893Z,994.69
2018-06-16T02:06:38.874Z,994.71
2018-06-16T02:07:38.868Z,994.73
2018-06-16T02:08:38.855Z,994.70
2018-06-16T02:09:38.836Z,994.71
2018-06-16T02:10:38.836Z,994.68
2018-06-16T02:11:38.807Z,994.68
2018-06-16T02:12:38.794Z,994.67
2018-06-16T02:13:38.782Z,994.68
2018-06-16T02:14:38.816Z,994.71
2018-06-16T02:15:38.747Z,994.71
2018-06-16T02:16:38.740Z,994.68
2018-06-16T02:17:38.718Z,994.68
2018-06-16T02:18:38.714Z,994.68
2018-06-16T02:19:38.733Z,994.69
2018-06-16T02:20:38.687Z,994.68
2018-06-16T02:21:38.661Z,994.66
2018-06-16T02:22:38.661Z,994.71
2018-06-16T02:23:38.632Z,994.68
2018-06-16T02:24:38.622Z,994.69
2018-06-16T02:25:38.610Z,994.67
2018-06-16T02:26:38.597Z,994.67
2018-06-16T02:27:38.579Z,994.65
2018-06-16T02:28:38.566Z,994.66
2018-06-16T02:29:38.553Z,994.60
2018-06-16T02:30:38.535Z,994.64
2018-06-16T02:31:38.516Z,994.64
2018-06-16T02:32:38.506Z,994.64
2018-06-16T02:33:38.503Z,994.62
2018-06-16T02:34:38.480Z,994.65
2018-06-16T02:35:38.458Z,994.67
2018-06-16T02:36:38.456Z,994.63
2018-06-16T02:37:38.432Z,994.63
2018-06-16T02:38:38.429Z,994.63
2018-06-16T02:39:38.403Z,994.63
2018-06-16T02:40:38.393Z,994.58
2018-06-16T02:41:38.379Z,994.56
2018-06-16T02:42:38.365Z,994.58
2018-06-16T02:43:38.343Z,994.57
2018-06-16T02:44:38.337Z,994.57
2018-06-16T02:45:38.315Z,994.59
2018-06-16T02:46:38.331Z,994.56
2018-06-16T02:47:38.289Z,994.58
2018-06-16T02:48:38.276Z,994.54
2018-06-16T02:49:38.270Z,994.57
2018-06-16T02:50:38.245Z,994.57
2018-06-16T02:51:38.327Z,994.58
2018-06-16T02:52:38.218Z,994.60
2018-06-16T02:53:38.201Z,994.62
2018-06-16T02:54:38.188Z,994.61
2018-06-16T02:55:38.180Z,994.60
2018-06-16T02:56:38.160Z,994.58
2018-06-16T02:57:38.145Z,994.61
2018-06-16T02:58:38.132Z,994.61
2018-06-16T02:59:38.116Z,994.62
2018-06-16T03:00:38.101Z,994.59
2018-06-16T03:01:38.093Z,994.59
2018-06-16T03:02:38.077Z,994.58
2018-06-16T03:03:38.069Z,994.57
2018-06-16T03:04:38.042Z,994.61
2018-06-16T03:05:38.030Z,994.58
2018-06-16T03:06:38.016Z,994.56
2018-06-16T03:07:38.000Z,994.59
2018-06-16T03:08:37.986Z,994.58
2018-06-16T03:09:37.986Z,994.57
2018-06-16T03:10:37.960Z,994.56
2018-06-16T03:11:37.942Z,994.59
2018-06-16T03:12:37.933Z,994.62
2018-06-16T03:13:37.913Z,994.60
2018-06-16T03:14:37.903Z,994.61
2018-06-16T03:15:37.893Z,994.59
2018-06-16T03:16:37.868Z,994.59
2018-06-16T03:17:37.859Z,994.59
2018-06-16T03:18:37.839Z,994.54
2018-06-16T03:19:37.829Z,994.58
2018-06-16T03:20:37.810Z,994.61
2018-06-16T03:21:37.797Z,994.57
2018-06-16T03:22:37.781Z,994.59
2018-06-16T03:23:37.848Z,994.55
2018-06-16T03:24:37.756Z,994.59
2018-06-16T03:25:37.740Z,994.59
2018-06-16T03:26:37.724Z,994.56
2018-06-16T03:27:37.707Z,994.54
2018-06-16T03:28:37.695Z,994.56
2018-06-16T03:29:37.685Z,994.55
2018-06-16T03:30:37.667Z,994.55
2018-06-16T03:31:37.659Z,994.57
2018-06-16T03:32:37.644Z,994.57
2018-06-16T03:33:37.629Z,994.59
2018-06-16T03:34:37.618Z,994.58
2018-06-16T03:35:37.593Z,994.62
2018-06-16T03:36:37.583Z,994.64
2018-06-16T03:37:37.567Z,994.60
2018-06-16T03:38:37.557Z,994.62
2018-06-16T03:39:37.535Z,994.63
2018-06-16T03:40:37.525Z,994.62
2018-06-16T03:41:37.513Z,994.65
2018-06-16T03:42:37.500Z,994.66
2018-06-16T03:43:37.478Z,994.66
2018-06-16T03:44:37.465Z,994.65
2018-06-16T03:45:37.452Z,994.65
2018-06-16T03:46:37.436Z,994.67
2018-06-16T03:47:37.419Z,994.69
2018-06-16T03:48:37.413Z,994.68
2018-06-16T03:49:37.447Z,994.66
2018-06-16T03:50:37.380Z,994.65
2018-06-16T03:51:37.365Z,994.64
2018-06-16T03:52:37.360Z,994.66
2018-06-16T03:53:37.342Z,994.66
2018-06-16T03:54:37.326Z,994.69
2018-06-16T03:55:37.307Z,994.66
2018-06-16T03:56:37.291Z,994.68
2018-06-16T03:57:37.283Z,994.72
2018-06-16T03:58:37.269Z,994.70
2018-06-16T03:59:37.246Z,994.69
2018-06-16T04:00:37.236Z,994.68
2018-06-16T04:01:37.220Z,994.65
2018-06-16T04:02:37.211Z,994.68
2018-06-16T04:03:37.195Z,994.66
2018-06-16T04:04:37.181Z,994.70
2018-06-16T04:05:37.174Z,994.68
2018-06-16T04:06:37.155Z,994.72
2018-06-16T04:07:37.136Z,994.71
2018-06-16T04:08:37.126Z,994.69
2018-06-16T04:09:37.110Z,994.74
2018-06-16T04:10:37.101Z,994.75
2018-06-16T04:11:37.084Z,994.76
2018-06-16T04:12:37.072Z,994.78
2018-06-16T04:13:37.056Z,994.77
2018-06-16T04:14:37.044Z,994.79
2018-06-16T04:15:37.024Z,994.81
2018-06-16T04:16:37.015Z,994.79
2018-06-16T04:17:37.002Z,994.73
2018-06-16T04:18:36.986Z,994.75
2018-06-16T04:19:36.967Z,994.71
2018-06-16T04:20:36.954Z,994.74
2018-06-16T04:21:36.948Z,994.71
2018-06-16T04:22:36.935Z,994.73
2018-06-16T04:23:36.915Z,994.73
2018-06-16T04:24:36.900Z,994.71
2018-06-16T04:25:36.887Z,994.68
2018-06-16T04:26:36.874Z,994.71
2018-06-16T04:27:36.867Z,994.70
2018-06-16T04:28:36.852Z,994.67
2018-06-16T04:29:36.836Z,994.68
2018-06-16T04:30:36.819Z,994.66
2018-06-16T04:31:36.810Z,994.69
2018-06-16T04:32:36.801Z,994.67
2018-06-16T04:33:36.781Z,994.68
2018-06-16T04:34:36.769Z,994.68
2018-06-16T04:35:36.750Z,994.67
2018-06-16T04:36:36.738Z,994.70
2018-06-16T04:37:36.727Z,994.70
2018-06-16T04:38:36.717Z,994.72
2018-06-16T04:39:36.705Z,994.70
2018-06-16T04:40:36.695Z,994.69
2018-06-16T04:41:36.670Z,994.70
2018-06-16T04:42:36.664Z,994.68
2018-06-16T04:43:36.650Z,994.70
2018-06-16T04:44:36.635Z,994.68
2018-06-16T04:45:36.726Z,994.72
2018-06-16T04:46:36.612Z,994.70
2018-06-16T04:47:36.591Z,994.66
2018-06-16T04:48:36.584Z,994.71
2018-06-16T04:49:36.575Z,994.70
2018-06-16T04:50:36.555Z,994.67
2018-06-16T04:51:36.546Z,994.68
2018-06-16T04:52:36.526Z,994.67
2018-06-16T04:53:36.510Z,994.70
2018-06-16T04:54:36.502Z,994.68
2018-06-16T04:55:36.494Z,994.69
2018-06-16T04:56:36.485Z,994.72
2018-06-16T04:57:36.468Z,994.71
2018-06-16T04:58:36.453Z,994.69
2018-06-16T04:59:36.456Z,994.68
2018-06-16T05:00:36.430Z,994.65
2018-06-16T05:01:36.415Z,994.68
2018-06-16T05:02:36.411Z,994.68
2018-06-16T05:03:36.407Z,994.68
2018-06-16T05:04:36.375Z,994.70
2018-06-16T05:05:36.367Z,994.71
2018-06-16T05:06:36.351Z,994.69
2018-06-16T05:07:36.335Z,994.69
2018-06-16T05:08:36.363Z,994.71
2018-06-16T05:09:36.312Z,994.73
2018-06-16T05:10:36.322Z,994.72
2018-06-16T05:11:36.294Z,994.72
2018-06-16T05:12:36.284Z,994.69
2018-06-16T05:13:36.277Z,994.73
2018-06-16T05:14:36.255Z,994.69
2018-06-16T05:15:36.239Z,994.70
2018-06-16T05:16:36.233Z,994.68
2018-06-16T05:17:36.217Z,994.67
2018-06-16T05:18:36.204Z,994.63
2018-06-16T05:19:36.190Z,994.67
2018-06-16T05:20:36.175Z,994.65
2018-06-16T05:21:36.170Z,994.64
2018-06-16T05:22:36.164Z,994.68
2018-06-16T05:23:36.148Z,994.67
2018-06-16T05:24:36.132Z,994.64
2018-06-16T05:25:36.124Z,994.64
2018-06-16T05:26:36.106Z,994.66
2018-06-16T05:27:36.097Z,994.67
2018-06-16T05:28:36.090Z,994.68
2018-06-16T05:29:36.078Z,994.68
2018-06-16T05:30:36.068Z,994.68
2018-06-16T05:31:36.071Z,994.65
2018-06-16T05:32:36.039Z,994.67
2018-06-16T05:33:36.030Z,994.66
2018-06-16T05:34:36.016Z,994.67
2018-06-16T05:35:36.001Z,994.66
2018-06-16T05:36:36.000Z,994.65
2018-06-16T05:37:35.986Z,994.67
2018-06-16T05:38:35.970Z,994.63
2018-06-16T05:39:35.960Z,994.66
2018-06-16T05:40:35.947Z,994.65
2018-06-16T05:41:35.937Z,994.67
2018-06-16T05:42:35.925Z,994.68
2018-06-16T05:43:35.921Z,994.69
2018-06-16T05:44:35.903Z,994.68
2018-06-16T05:45:35.896Z,994.67
2018-06-16T05:46:35.890Z,994.74
2018-06-16T05:47:35.871Z,994.69
2018-06-16T05:48:35.864Z,994.73
2018-06-16T05:49:35.851Z,994.73
2018-06-16T05:50:35.842Z,994.75
2018-06-16T05:51:35.832Z,994.74
2018-06-16T05:52:35.824Z,994.73
2018-06-16T05:53:35.829Z,994.70
2018-06-16T05:54:35.819Z,994.71
2018-06-16T05:55:35.797Z,994.70
2018-06-16T05:56:35.783Z,994.74
2018-06-16T05:57:35.777Z,994.72
2018-06-16T05:58:35.764Z,994.74
2018-06-16T05:59:35.758Z,994.75
2018-06-16T06:00:35.778Z,994.74
2018-06-16T06:01:35.739Z,994.77
2018-06-16T06:02:35.723Z,994.78
2018-06-16T06:03:35.716Z,994.79
2018-06-16T06:04:35.730Z,994.81
2018-06-16T06:05:35.694Z,994.82
2018-06-16T06:06:35.688Z,994.83
2018-06-16T06:07:35.684Z,994.85
2018-06-16T06:08:35.665Z,994.92
2018-06-16T06:09:35.658Z,994.93
2018-06-16T06:10:35.720Z,994.91
2018-06-16T06:11:35.639Z,994.94
2018-06-16T06:12:35.630Z,994.96
2018-06-16T06:13:35.624Z,994.95
2018-06-16T06:14:35.621Z,994.98
2018-06-16T06:15:35.608Z,994.97
2018-06-16T06:16:35.591Z,995.01
2018-06-16T06:17:35.581Z,995.01
2018-06-16T06:18:35.575Z,994.99
2018-06-16T06:19:35.571Z,995.03
2018-06-16T06:20:35.549Z,994.98
2018-06-16T06:21:35.548Z,995.05
2018-06-16T06:22:35.533Z,995.02
2018-06-16T06:23:35.520Z,995.01
2018-06-16T06:24:35.517Z,995.01
2018-06-16T06:25:35.510Z,994.98
2018-06-16T06:26:35.498Z,995.05
2018-06-16T06:27:35.485Z,995.05
2018-06-16T06:28:35.485Z,995.03
2018-06-16T06:29:35.475Z,995.06
2018-06-16T06:30:35.469Z,995.05
2018-06-16T06:31:35.459Z,995.04
2018-06-16T06:32:35.450Z,995.04
2018-06-16T06:33:35.437Z,995.05
2018-06-16T06:34:35.433Z,995.02
2018-06-16T06:35:35.421Z,995.06
2018-06-16T06:36:35.416Z,995.05
2018-06-16T06:37:35.408Z,995.08
2018-06-16T06:38:35.400Z,995.09
2018-06-16T06:39:35.392Z,995.10
2018-06-16T06:40:35.381Z,995.13
2018-06-16T06:41:35.373Z,995.14
2018-06-16T06:42:35.370Z,995.12
2018-06-16T06:43:35.364Z,995.16
2018-06-16T06:44:35.351Z,995.15
2018-06-16T06:45:35.342Z,995.19
2018-06-16T06:46:35.347Z,995.19
2018-06-16T06:47:35.328Z,995.20
2018-06-16T06:48:35.326Z,995.18
2018-06-16T06:49:35.312Z,995.17
2018-06-16T06:50:35.310Z,995.16
2018-06-16T06:51:35.335Z,995.17
2018-06-16T06:52:35.303Z,995.15
2018-06-16T06:53:35.289Z,995.17
2018-06-16T06:54:35.283Z,995.15
2018-06-16T06:55:35.274Z,995.14
2018-06-16T06:56:35.286Z,995.18
2018-06-16T06:57:35.251Z,995.15
2018-06-16T06:58:35.248Z,995.10
2018-06-16T06:59:35.239Z,995.16
2018-06-16T07:00:35.233Z,995.15
2018-06-16T07:01:35.245Z,995.12
2018-06-16T07:02:35.223Z,995.11
2018-06-16T07:03:35.216Z,995.13
2018-06-16T07:04:35.214Z,995.12
2018-06-16T07:05:35.200Z,995.12
2018-06-16T07:06:35.197Z,995.12
2018-06-16T07:07:35.194Z,995.14
2018-06-16T07:08:35.178Z,995.11
2018-06-16T07:09:35.178Z,995.08
2018-06-16T07:10:35.187Z,995.09
2018-06-16T07:11:35.224Z,995.08
2018-06-16T07:12:35.168Z,995.08
2018-06-16T07:13:35.149Z,995.09
2018-06-16T07:14:35.155Z,995.09
2018-06-16T07:15:35.150Z,995.11
2018-06-16T07:16:35.127Z,995.08
2018-06-16T07:17:35.130Z,995.13
2018-06-16T07:18:35.165Z,995.12
2018-06-16T07:19:35.120Z,995.14
2018-06-16T07:20:35.104Z,995.15
2018-06-16T07:21:35.148Z,995.14
2018-06-16T07:22:35.089Z,995.14
2018-06-16T07:23:35.130Z,995.16
2018-06-16T07:24:35.080Z,995.14
2018-06-16T07:25:35.073Z,995.16
2018-06-16T07:26:35.066Z,995.15
2018-06-16T07:27:35.063Z,995.17
2018-06-16T07:28:35.098Z,995.15
2018-06-16T07:29:35.060Z,995.17
2018-06-16T07:30:35.051Z,995.20
2018-06-16T07:31:35.060Z,995.18
2018-06-16T07:32:35.086Z,995.17
2018-06-16T07:33:35.082Z,995.20
2018-06-16T07:34:35.047Z,995.16
2018-06-16T07:35:35.018Z,995.17
2018-06-16T07:36:35.018Z,995.18
2018-06-16T07:37:35.075Z,995.17
2018-06-16T07:38:35.002Z,995.19
2018-06-16T07:39:34.999Z,995.19
2018-06-16T07:40:35.006Z,995.23
2018-06-16T07:41:35.059Z,995.18
2018-06-16T07:42:34.995Z,995.20
2018-06-16T07:43:34.979Z,995.19
2018-06-16T07:44:34.982Z,995.18
2018-06-16T07:45:35.044Z,995.20
2018-06-16T07:46:34.967Z,995.21
2018-06-16T07:47:34.986Z,995.22
2018-06-16T07:48:34.999Z,995.19
2018-06-16T07:49:34.976Z,995.17
2018-06-16T07:50:34.944Z,995.21
2018-06-16T07:51:34.937Z,995.23
2018-06-16T07:52:34.935Z,995.20
2018-06-16T07:53:34.934Z,995.18
2018-06-16T07:54:34.928Z,995.21
2018-06-16T07:55:34.922Z,995.20
2018-06-16T07:56:34.931Z,995.22
2018-06-16T07:57:34.915Z,995.24
2018-06-16T07:58:34.905Z,995.23
2018-06-16T07:59:34.906Z,995.23
2018-06-16T08:00:34.899Z,995.24
2018-06-16T08:01:34.898Z,995.20
2018-06-16T08:02:34.886Z,995.20
2018-06-16T08:03:34.882Z,995.20
2018-06-16T08:04:34.873Z,995.23
2018-06-16T08:05:34.875Z,995.22
2018-06-16T08:06:34.868Z,995.19
2018-06-16T08:07:34.864Z,995.21
2018-06-16T08:08:34.859Z,995.21
2018-06-16T08:09:34.870Z,995.21
2018-06-16T08:10:34.851Z,995.19
2018-06-16T08:11:34.844Z,995.18
2018-06-16T08:12:34.842Z,995.18
2018-06-16T08:13:34.841Z,995.15
2018-06-16T08:14:34.835Z,995.11
2018-06-16T08:15:34.829Z,995.12
2018-06-16T08:16:34.819Z,995.13
2018-06-16T08:17:34.819Z,995.10
2018-06-16T08:18:34.813Z,995.11
2018-06-16T08:19:34.803Z,995.12
2018-06-16T08:20:34.800Z,995.08
2018-06-16T08:21:34.804Z,995.11
2018-06-16T08:22:34.800Z,995.11
2018-06-16T08:23:34.800Z,995.11
2018-06-16T08:24:34.814Z,995.13
2018-06-16T08:25:34.776Z,995.09
2018-06-16T08:26:34.783Z,995.13
2018-06-16T08:27:34.763Z,995.12
2018-06-16T08:28:34.760Z,995.09
2018-06-16T08:29:34.760Z,995.10
2018-06-16T08:30:34.769Z,995.08
2018-06-16T08:31:34.750Z,995.07
2018-06-16T08:32:34.754Z,995.05
2018-06-16T08:33:34.745Z,995.04
2018-06-16T08:34:34.738Z,995.02
2018-06-16T08:35:34.748Z,995.03
2018-06-16T08:36:34.728Z,995.03
2018-06-16T08:37:34.734Z,995.07
2018-06-16T08:38:34.728Z,995.03
2018-06-16T08:39:34.716Z,995.04
2018-06-16T08:40:34.720Z,995.05
2018-06-16T08:41:34.709Z,995.05
2018-06-16T08:42:34.706Z,995.03
2018-06-16T08:43:34.696Z,995.03
2018-06-16T08:44:34.697Z,995.04
2018-06-16T08:45:34.696Z,995.02
2018-06-16T08:46:34.693Z,995.03
2018-06-16T08:47:34.687Z,995.08
2018-06-16T08:48:34.688Z,995.08
2018-06-16T08:49:34.690Z,995.05
2018-06-16T08:50:34.677Z,995.05
2018-06-16T08:51:34.671Z,995.04
2018-06-16T08:52:34.667Z,995.09
2018-06-16T08:53:34.673Z,995.10
2018-06-16T08:54:34.691Z,995.08
2018-06-16T08:55:34.760Z,995.10
2018-06-16T08:56:34.661Z,995.04
2018-06-16T08:57:34.645Z,995.07
2018-06-16T08:58:34.645Z,995.10
2018-06-16T08:59:34.638Z,995.06
2018-06-16T09:00:34.643Z,995.08
2018-06-16T09:01:34.632Z,995.07
2018-06-16T09:02:34.638Z,995.08
2018-06-16T09:03:34.638Z,995.09
2018-06-16T09:04:34.622Z,995.07
2018-06-16T09:05:34.617Z,995.03
2018-06-16T09:06:34.619Z,995.09
2018-06-16T09:07:34.606Z,995.03
2018-06-16T09:08:34.606Z,995.07
2018-06-16T09:09:34.599Z,995.02
2018-06-16T09:10:34.604Z,995.02
2018-06-16T09:11:34.647Z,995.05
2018-06-16T09:12:34.590Z,995.08
2018-06-16T09:13:34.588Z,995.04
2018-06-16T09:14:34.578Z,995.04
2018-06-16T09:15:34.574Z,995.03
2018-06-16T09:16:34.578Z,995.07
2018-06-16T09:17:34.568Z,995.06
2018-06-16T09:18:34.571Z,995.06
2018-06-16T09:19:34.559Z,995.08
2018-06-16T09:20:34.563Z,995.07
2018-06-16T09:21:34.555Z,995.08
2018-06-16T09:22:34.564Z,995.09
2018-06-16T09:23:34.552Z,995.07
2018-06-16T09:24:34.546Z,995.08
2018-06-16T09:25:34.543Z,995.07
2018-06-16T09:26:34.539Z,995.08
2018-06-16T09:27:34.530Z,995.07
2018-06-16T09:28:34.532Z,995.08
2018-06-16T09:29:34.526Z,995.11
2018-06-16T09:30:34.530Z,995.06
2018-06-16T09:31:34.517Z,995.07
2018-06-16T09:32:34.517Z,995.08
2018-06-16T09:33:34.520Z,995.09
2018-06-16T09:34:34.514Z,995.12
2018-06-16T09:35:34.504Z,995.11
2018-06-16T09:36:34.508Z,995.09
2018-06-16T09:37:34.523Z,995.09
2018-06-16T09:38:34.497Z,995.07
2018-06-16T09:39:34.494Z,995.06
2018-06-16T09:40:34.485Z,995.10
2018-06-16T09:41:34.485Z,995.05
2018-06-16T09:42:34.515Z,995.08
2018-06-16T09:43:34.481Z,995.07
2018-06-16T09:44:34.497Z,995.09
2018-06-16T09:45:34.472Z,995.09
2018-06-16T09:46:34.472Z,995.10
2018-06-16T09:47:34.469Z,995.14
2018-06-16T09:48:34.466Z,995.14
2018-06-16T09:49:34.462Z,995.11
2018-06-16T09:50:34.462Z,995.10
2018-06-16T09:51:34.450Z,995.13
2018-06-16T09:52:34.462Z,995.13
2018-06-16T09:53:34.450Z,995.07
2018-06-16T09:54:34.441Z,995.10
2018-06-16T09:55:34.443Z,995.07
2018-06-16T09:56:34.440Z,995.09
2018-06-16T09:57:34.453Z,995.09
2018-06-16T09:58:34.434Z,995.07
2018-06-16T09:59:34.424Z,995.06
2018-06-16T10:00:34.425Z,995.07
2018-06-16T10:01:34.421Z,995.04
2018-06-16T10:02:34.418Z,995.05
2018-06-16T10:03:34.420Z,995.03
2018-06-16T10:04:34.408Z,995.05
2018-06-16T10:05:34.415Z,995.03
2018-06-16T10:06:34.408Z,994.99
2018-06-16T10:07:34.402Z,995.01
2018-06-16T10:08:34.398Z,995.00
2018-06-16T10:09:34.396Z,995.02
2018-06-16T10:10:34.389Z,995.02
2018-06-16T10:11:34.386Z,995.00
2018-06-16T10:12:34.389Z,994.98
2018-06-16T10:13:34.384Z,995.02
2018-06-16T10:14:34.380Z,994.98
2018-06-16T10:15:34.377Z,995.00
2018-06-16T10:16:34.377Z,994.98
2018-06-16T10:17:34.374Z,994.99
2018-06-16T10:18:34.371Z,995.00
2018-06-16T10:19:34.364Z,995.01
2018-06-16T10:20:34.364Z,995.00
2018-06-16T10:21:34.363Z,994.99
2018-06-16T10:22:34.360Z,994.99
2018-06-16T10:23:34.359Z,994.99
2018-06-16T10:24:34.363Z,994.94
2018-06-16T10:25:34.355Z,994.96
2018-06-16T10:26:34.372Z,994.94
2018-06-16T10:27:34.355Z,994.97
2018-06-16T10:28:34.354Z,994.95
2018-06-16T10:29:34.370Z,994.92
2018-06-16T10:30:34.343Z,994.95
2018-06-16T10:31:34.344Z,994.92
2018-06-16T10:32:34.338Z,994.93
2018-06-16T10:33:34.347Z,994.93
2018-06-16T10:34:34.335Z,994.89
2018-06-16T10:35:34.341Z,994.92
2018-06-16T10:36:34.343Z,994.87
2018-06-16T10:37:34.339Z,994.90
2018-06-16T10:38:34.337Z,994.93
2018-06-16T10:39:34.343Z,994.88
2018-06-16T10:40:34.339Z,994.85
2018-06-16T10:41:34.342Z,994.88
2018-06-16T10:42:34.346Z,994.86
2018-06-16T10:43:34.339Z,994.84
2018-06-16T10:44:34.346Z,994.84
2018-06-16T10:45:34.335Z,994.81
2018-06-16T10:46:34.343Z,994.82
2018-06-16T10:47:34.345Z,994.82
2018-06-16T10:48:34.335Z,994.78
2018-06-16T10:49:34.338Z,994.79
2018-06-16T10:50:34.345Z,994.78
2018-06-16T10:51:34.333Z,994.79
2018-06-16T10:52:34.345Z,994.78
2018-06-16T10:53:34.343Z,994.78
2018-06-16T10:54:34.345Z,994.77
2018-06-16T10:55:34.338Z,994.80
2018-06-16T10:56:34.343Z,994.76
2018-06-16T10:57:34.344Z,994.77
2018-06-16T10:58:34.345Z,994.72
2018-06-16T10:59:34.339Z,994.74
2018-06-16T11:00:34.329Z,994.72
2018-06-16T11:01:34.332Z,994.73
2018-06-16T11:02:34.332Z,994.70
2018-06-16T11:03:34.323Z,994.65
2018-06-16T11:04:34.338Z,994.61
2018-06-16T11:05:34.319Z,994.60
2018-06-16T11:06:34.317Z,994.60
2018-06-16T11:07:34.326Z,994.60
2018-06-16T11:08:34.316Z,994.63
2018-06-16T11:09:34.309Z,994.61
2018-06-16T11:10:34.310Z,994.63
2018-06-16T11:11:34.310Z,994.62
2018-06-16T11:12:34.316Z,994.65
2018-06-16T11:13:34.303Z,994.66
2018-06-16T11:14:34.297Z,994.63
2018-06-16T11:15:34.299Z,994.61
2018-06-16T11:16:34.288Z,994.66
2018-06-16T11:17:34.297Z,994.66
2018-06-16T11:18:34.293Z,994.65
2018-06-16T11:19:34.281Z,994.66
2018-06-16T11:20:34.288Z,994.69
2018-06-16T11:21:34.286Z,994.63
2018-06-16T11:22:34.297Z,994.59
2018-06-16T11:23:34.311Z,994.59
2018-06-16T11:24:34.291Z,994.63
2018-06-16T11:25:34.285Z,994.59
2018-06-16T11:26:34.285Z,994.54
2018-06-16T11:27:34.281Z,994.55
2018-06-16T11:28:34.287Z,994.55
2018-06-16T11:29:34.282Z,994.55
2018-06-16T11:30:34.302Z,994.52
2018-06-16T11:31:34.289Z,994.52
2018-06-16T11:32:34.285Z,994.48
2018-06-16T11:33:34.291Z,994.49
2018-06-16T11:34:34.291Z,994.48
2018-06-16T11:35:34.288Z,994.46
2018-06-16T11:36:34.285Z,994.41
2018-06-16T11:37:34.282Z,994.40
2018-06-16T11:38:34.311Z,994.41
2018-06-16T11:39:34.294Z,994.40
2018-06-16T11:40:34.304Z,994.37
2018-06-16T11:41:34.285Z,994.38
2018-06-16T11:42:34.284Z,994.37
2018-06-16T11:43:34.284Z,994.36
2018-06-16T11:44:34.296Z,994.33
2018-06-16T11:45:34.297Z,994.33
2018-06-16T11:46:34.310Z,994.34
2018-06-16T11:47:34.291Z,994.29
2018-06-16T11:48:34.297Z,994.29
2018-06-16T11:49:34.290Z,994.27
2018-06-16T11:50:34.301Z,994.27
2018-06-16T11:51:34.304Z,994.27
2018-06-16T11:52:34.307Z,994.29
2018-06-16T11:53:34.301Z,994.23
2018-06-16T11:54:34.335Z,994.24
2018-06-16T11:55:34.310Z,994.26
2018-06-16T11:56:34.337Z,994.18
2018-06-16T11:57:34.363Z,994.20
2018-06-16T11:58:34.319Z,994.15
2018-06-16T11:59:34.320Z,994.13
2018-06-16T12:00:34.323Z,994.12
2018-06-16T12:01:34.323Z,994.14
2018-06-16T12:02:34.332Z,994.13
2018-06-16T12:03:34.338Z,994.13
2018-06-16T12:04:34.339Z,994.10
2018-06-16T12:05:34.345Z,994.09
2018-06-16T12:06:34.377Z,994.09
2018-06-16T12:07:34.348Z,994.06
2018-06-16T12:08:34.348Z,994.08
2018-06-16T12:09:34.367Z,994.08
2018-06-16T12:10:34.368Z,994.06
2018-06-16T12:11:34.368Z,994.07
2018-06-16T12:12:34.374Z,994.07
2018-06-16T12:13:34.383Z,994.06
2018-06-16T12:14:34.374Z,994.05
2018-06-16T12:15:34.387Z,994.06
2018-06-16T12:16:34.385Z,994.07
2018-06-16T12:17:34.384Z,994.05
2018-06-16T12:18:34.386Z,994.05
2018-06-16T12:19:34.390Z,994.04
2018-06-16T12:20:34.390Z,994.04
2018-06-16T12:21:34.397Z,994.02
2018-06-16T12:22:34.396Z,994.03
2018-06-16T12:23:34.406Z,994.03
2018-06-16T12:24:34.405Z,993.99
2018-06-16T12:25:34.415Z,994.02
2018-06-16T12:26:34.406Z,994.06
2018-06-16T12:27:34.428Z,994.04
2018-06-16T12:28:34.416Z,994.02